メインページ
METAR-TAF:

METAR-TAF

空港 :

ラパス, メキシコ

緯度: 24-04N, 経度: 110-22W, 海抜: 21m

現時点の気象観測

当レポートは1時間8分前の15:41(UTC)に作成
の風 4kt
気温 15°C
湿度 88%
気圧 1021 hPa
視程: 16.1km
高度2500ftの雲はほとんどない
高度22000ftの雲は散在している

METAR: MMLP 171541Z 18004KT 10SM FEW025 SCT220 15/13 A3016 RMK 8/408 HZY ISOL AC

時間: 09:49 (16:49 UTC)

予報

当レポートは12時間50分前の03:59(UTC)に作成
予報は17日の 06時(UTC)から 18日の 06時(UTC)まで有効
北東の風 5kt
視程: 10km
高度25000ftの千切れ雲あり
17日の 1800時(UTC)から
北/北東の風 12kt
視程: 10km
高度3000ftの雲は散在している
高度12000ftの千切れ雲あり
高度25000ftの曇り
18日の 0500時(UTC)から
北東の風 5kt
視程: 10km
高度25000ftの千切れ雲あり

TAF: MMLP 170359Z 1706/1806 04005KT P6SM BKN250 FM171800 02012KT P6SM SCT030 BKN120 OVC250 FM180500 04005KT P6SM BKN250

4,000以上の空港の気象観測と天気予報(METAR報とTAF報)

利用可能な観測所は地図上に黄色い丸と赤い丸で示す。

丸の上にカーソルを重ねると観測所名を参照できる。

次にクリックすると気象観測と天気予報を参照できる。

マップの切り替え:黒色「×」印の緑ボタンをクリックして拡大、「-」印の緑ボタンをクリックして縮小、緑色の三角印をクリックして隣りの地図に切り替え


METAR-TAF: